createdAt,value
2017-09-08T00:00:28.247Z,13.40
2017-09-08T00:02:55.742Z,13.40
2017-09-08T00:05:23.337Z,13.40
2017-09-08T00:07:50.827Z,13.30
2017-09-08T00:10:18.312Z,13.30
2017-09-08T00:12:46.587Z,13.20
2017-09-08T00:15:14.823Z,13.20
2017-09-08T00:17:42.306Z,13.20
2017-09-08T00:20:09.801Z,13.20
2017-09-08T00:22:37.288Z,13.20
2017-09-08T00:25:04.771Z,13.20
2017-09-08T00:27:32.286Z,13.20
2017-09-08T00:29:59.754Z,13.10
2017-09-08T00:32:27.227Z,13.10
2017-09-08T00:34:54.716Z,13.20
2017-09-08T00:37:22.191Z,13.20
2017-09-08T00:39:50.451Z,13.10
2017-09-08T00:42:18.710Z,13.20
2017-09-08T00:44:46.215Z,13.20
2017-09-08T00:47:13.694Z,13.10
2017-09-08T00:49:41.196Z,13.00
2017-09-08T00:52:08.665Z,12.90
2017-09-08T00:54:36.924Z,12.90
2017-09-08T00:57:04.395Z,12.90
2017-09-08T00:59:32.644Z,13.00
2017-09-08T01:02:00.138Z,12.90
2017-09-08T01:04:27.624Z,13.10
2017-09-08T01:06:55.144Z,13.10
2017-09-08T01:09:23.403Z,13.00
2017-09-08T01:11:50.873Z,12.90
2017-09-08T01:14:18.367Z,13.00
2017-09-08T01:16:45.845Z,13.10
2017-09-08T01:19:13.316Z,13.20
2017-09-08T01:21:40.806Z,13.10
2017-09-08T01:24:08.289Z,13.10
2017-09-08T01:26:36.648Z,13.00
2017-09-08T01:29:04.896Z,13.10
2017-09-08T01:31:32.377Z,13.10
2017-09-08T01:34:00.608Z,13.10
2017-09-08T01:36:28.090Z,13.10
2017-09-08T01:38:55.580Z,13.20
2017-09-08T01:41:23.834Z,13.20
2017-09-08T01:43:51.314Z,13.10
2017-09-08T01:46:19.564Z,13.10
2017-09-08T01:48:47.048Z,13.10
2017-09-08T01:51:15.319Z,13.10
2017-09-08T01:53:42.802Z,13.10
2017-09-08T01:56:10.289Z,13.00
2017-09-08T01:58:37.764Z,13.10
2017-09-08T02:01:05.265Z,13.10
2017-09-08T02:03:32.764Z,13.20
2017-09-08T02:06:00.237Z,13.20
2017-09-08T02:08:27.755Z,13.20
2017-09-08T02:10:55.253Z,13.20
2017-09-08T02:13:22.749Z,13.20
2017-09-08T02:15:50.978Z,13.30
2017-09-08T02:18:18.462Z,13.20
2017-09-08T02:20:46.717Z,13.30
2017-09-08T02:23:14.207Z,13.30
2017-09-08T02:25:42.450Z,13.20
2017-09-08T02:28:09.942Z,13.20
2017-09-08T02:30:38.174Z,13.10
2017-09-08T02:33:05.684Z,13.10
2017-09-08T02:35:33.939Z,13.10
2017-09-08T02:38:02.227Z,13.00
2017-09-08T02:40:30.476Z,13.00
2017-09-08T02:42:57.938Z,13.00
2017-09-08T02:45:25.438Z,13.00
2017-09-08T02:47:52.931Z,12.90
2017-09-08T02:50:20.414Z,12.90
2017-09-08T02:52:47.894Z,12.70
2017-09-08T02:55:16.140Z,12.80
2017-09-08T02:57:43.618Z,12.80
2017-09-08T03:00:11.870Z,13.10
2017-09-08T03:02:39.333Z,13.10
2017-09-08T03:05:06.833Z,13.10
2017-09-08T03:07:35.097Z,13.00
2017-09-08T03:10:03.349Z,13.00
2017-09-08T03:12:30.833Z,13.00
2017-09-08T03:14:59.088Z,13.00
2017-09-08T03:17:26.568Z,13.00
2017-09-08T03:19:54.833Z,13.20
2017-09-08T03:22:22.302Z,13.20
2017-09-08T03:24:50.550Z,13.10
2017-09-08T03:27:18.804Z,13.10
2017-09-08T03:29:46.302Z,13.10
2017-09-08T03:32:13.794Z,13.00
2017-09-08T03:34:41.271Z,13.10
2017-09-08T03:37:08.758Z,13.10
2017-09-08T03:39:36.243Z,13.20
2017-09-08T03:42:03.726Z,13.10
2017-09-08T03:44:31.228Z,13.00
2017-09-08T03:46:58.711Z,13.10
2017-09-08T03:49:26.946Z,13.00
2017-09-08T03:51:54.444Z,13.00
2017-09-08T03:54:22.676Z,13.00
2017-09-08T03:56:50.171Z,12.90
2017-09-08T03:59:17.651Z,12.80
2017-09-08T04:01:45.139Z,13.00
2017-09-08T04:04:12.613Z,13.20
2017-09-08T04:06:40.102Z,13.20
2017-09-08T04:09:07.590Z,13.30
2017-09-08T04:11:35.088Z,13.30
2017-09-08T04:14:02.554Z,13.40
2017-09-08T04:16:30.040Z,13.30
2017-09-08T04:18:58.292Z,13.10
2017-09-08T04:21:25.795Z,13.10
2017-09-08T04:23:53.278Z,13.20
2017-09-08T04:26:22.178Z,13.30
2017-09-08T04:28:49.862Z,13.30
2017-09-08T04:31:17.398Z,13.20
2017-09-08T04:33:44.902Z,13.20
2017-09-08T04:36:13.540Z,13.30
2017-09-08T04:38:41.046Z,13.30
2017-09-08T04:41:09.317Z,13.50
2017-09-08T04:43:36.857Z,13.50
2017-09-08T04:46:04.335Z,13.50
2017-09-08T04:48:31.822Z,13.40
2017-09-08T04:50:59.314Z,13.50
2017-09-08T04:53:26.810Z,13.50
2017-09-08T04:55:54.275Z,13.50
2017-09-08T04:58:21.763Z,13.40
2017-09-08T05:00:49.243Z,13.50
2017-09-08T05:03:16.730Z,13.50
2017-09-08T05:05:44.207Z,13.50
2017-09-08T05:08:12.473Z,13.50
2017-09-08T05:10:39.951Z,13.50
2017-09-08T05:13:07.428Z,13.60
2017-09-08T05:15:34.909Z,13.50
2017-09-08T05:18:02.388Z,13.50
2017-09-08T05:20:30.724Z,13.40
2017-09-08T05:22:58.213Z,13.40
2017-09-08T05:25:27.007Z,13.40
2017-09-08T05:27:54.498Z,13.40
2017-09-08T05:30:22.761Z,13.50
2017-09-08T05:32:50.246Z,13.50
2017-09-08T05:35:18.962Z,13.50
2017-09-08T05:37:46.451Z,13.40
2017-09-08T05:40:13.947Z,13.40
2017-09-08T05:42:41.431Z,13.50
2017-09-08T05:45:08.911Z,13.60
2017-09-08T05:47:36.403Z,13.60
2017-09-08T05:50:03.884Z,13.60
2017-09-08T05:52:31.378Z,13.60
2017-09-08T05:54:58.861Z,13.60
2017-09-08T05:57:26.362Z,13.50
2017-09-08T05:59:53.857Z,13.60
2017-09-08T06:02:21.346Z,13.60
2017-09-08T06:04:48.835Z,13.70
2017-09-08T06:07:16.392Z,13.70
2017-09-08T06:09:44.812Z,13.70
2017-09-08T06:12:12.293Z,13.70
2017-09-08T06:14:39.771Z,13.60
2017-09-08T06:17:08.057Z,13.60
2017-09-08T06:19:35.542Z,13.60
2017-09-08T06:22:03.038Z,13.60
2017-09-08T06:24:30.530Z,13.60
2017-09-08T06:26:58.020Z,13.80
2017-09-08T06:29:25.530Z,13.80
2017-09-08T06:31:53.009Z,13.80
2017-09-08T06:34:27.107Z,14.00
2017-09-08T06:36:54.593Z,14.10
2017-09-08T06:39:22.097Z,14.10
2017-09-08T06:41:49.581Z,14.20
2017-09-08T06:44:17.077Z,14.20
2017-09-08T06:46:44.574Z,14.20
2017-09-08T06:49:12.068Z,14.00
2017-09-08T06:51:39.553Z,14.10
2017-09-08T06:54:07.081Z,14.30
2017-09-08T06:56:35.353Z,14.30
2017-09-08T06:59:03.615Z,14.40
2017-09-08T07:01:31.859Z,14.60
2017-09-08T07:03:59.342Z,14.60
2017-09-08T07:06:26.836Z,14.50
2017-09-08T07:08:54.408Z,14.60
2017-09-08T07:11:21.903Z,14.60
2017-09-08T07:13:49.438Z,14.60
2017-09-08T07:16:16.930Z,14.50
2017-09-08T07:18:44.411Z,14.60
2017-09-08T07:21:12.672Z,14.50
2017-09-08T07:23:40.152Z,14.50
2017-09-08T07:26:07.635Z,14.50
2017-09-08T07:28:35.117Z,14.40
2017-09-08T07:31:02.641Z,14.70
2017-09-08T07:33:30.125Z,14.80
2017-09-08T07:35:57.628Z,14.70
2017-09-08T07:38:25.119Z,14.90
2017-09-08T07:40:53.389Z,14.90
2017-09-08T07:43:20.875Z,14.80
2017-09-08T07:45:48.359Z,14.90
2017-09-08T07:48:15.838Z,14.90
2017-09-08T07:50:44.124Z,15.10
2017-09-08T07:53:11.612Z,15.10
2017-09-08T07:55:39.118Z,15.30
2017-09-08T07:58:07.372Z,15.40
2017-09-08T08:00:36.820Z,15.40
2017-09-08T08:03:05.074Z,15.40
2017-09-08T08:05:32.595Z,15.40
2017-09-08T08:08:00.092Z,15.50
2017-09-08T08:10:28.359Z,15.80
2017-09-08T08:12:55.841Z,15.80
2017-09-08T08:15:24.099Z,15.90
2017-09-08T08:17:51.581Z,15.90
2017-09-08T08:20:19.838Z,16.10
2017-09-08T08:22:48.100Z,16.00
2017-09-08T08:25:15.573Z,16.00
2017-09-08T08:27:43.847Z,16.00
2017-09-08T08:30:12.110Z,16.10
2017-09-08T08:32:39.598Z,16.10
2017-09-08T08:35:07.859Z,16.10
2017-09-08T08:37:36.117Z,16.30
2017-09-08T08:40:03.614Z,16.30
2017-09-08T08:42:31.882Z,16.50
2017-09-08T08:45:00.131Z,16.60
2017-09-08T08:47:28.397Z,16.70
2017-09-08T08:49:55.878Z,16.70
2017-09-08T08:52:23.375Z,16.70
2017-09-08T08:54:50.858Z,16.70
2017-09-08T08:57:18.350Z,16.60
2017-09-08T08:59:45.840Z,16.70
2017-09-08T09:02:13.311Z,16.70
2017-09-08T09:04:40.791Z,16.90
2017-09-08T09:07:08.283Z,17.10
2017-09-08T09:09:35.779Z,17.30
2017-09-08T09:12:03.264Z,17.50
2017-09-08T09:14:30.761Z,17.60
2017-09-08T09:16:59.014Z,18.00
2017-09-08T09:19:26.503Z,18.00
2017-09-08T09:21:54.760Z,18.00
2017-09-08T09:24:22.254Z,18.00
2017-09-08T09:26:49.734Z,17.90
2017-09-08T09:29:17.238Z,17.60
2017-09-08T09:31:44.724Z,17.40
2017-09-08T09:34:12.965Z,17.50
2017-09-08T09:36:40.438Z,17.50
2017-09-08T09:39:08.696Z,17.50
2017-09-08T09:41:36.951Z,17.50
2017-09-08T09:44:04.444Z,17.50
2017-09-08T09:46:31.917Z,17.60
2017-09-08T09:49:00.197Z,17.50
2017-09-08T09:51:27.703Z,17.50
2017-09-08T09:53:55.192Z,17.50
2017-09-08T09:56:22.689Z,17.60
2017-09-08T09:58:50.164Z,17.60
2017-09-08T10:01:19.695Z,17.70
2017-09-08T10:03:48.888Z,17.80
2017-09-08T10:06:16.488Z,17.70
2017-09-08T10:08:44.755Z,17.90
2017-09-08T10:11:12.261Z,17.90
2017-09-08T10:13:39.756Z,18.10
2017-09-08T10:16:07.244Z,18.30
2017-09-08T10:18:34.728Z,18.40
2017-09-08T10:21:02.226Z,18.50
2017-09-08T10:23:29.697Z,18.60
2017-09-08T10:25:57.991Z,18.40
2017-09-08T10:28:26.245Z,18.50
2017-09-08T10:30:53.719Z,18.50
2017-09-08T10:33:21.968Z,18.40
2017-09-08T10:35:49.468Z,18.30
2017-09-08T10:38:16.952Z,18.50
2017-09-08T10:40:48.127Z,18.50
2017-09-08T10:43:15.634Z,18.50
2017-09-08T10:45:43.132Z,18.50
2017-09-08T10:48:10.623Z,18.50
2017-09-08T10:50:38.867Z,18.70
2017-09-08T10:53:06.365Z,18.70
2017-09-08T10:55:33.841Z,18.80
2017-09-08T10:58:15.643Z,19.00
2017-09-08T11:00:43.401Z,18.70
2017-09-08T11:03:10.881Z,18.70
2017-09-08T11:05:38.385Z,18.60
2017-09-08T11:08:06.647Z,18.30
2017-09-08T11:10:34.132Z,18.30
2017-09-08T11:13:02.406Z,18.30
2017-09-08T11:15:30.655Z,18.40
2017-09-08T11:17:58.155Z,18.30
2017-09-08T11:20:25.662Z,18.50
2017-09-08T11:22:53.150Z,18.50
2017-09-08T11:25:21.406Z,18.50
2017-09-08T11:27:48.894Z,18.50
2017-09-08T11:30:17.151Z,18.50
2017-09-08T11:32:50.452Z,18.50
2017-09-08T11:35:23.862Z,18.60
2017-09-08T11:37:52.136Z,18.70
2017-09-08T11:40:20.396Z,18.70
2017-09-08T11:42:47.903Z,18.70
2017-09-08T11:45:15.396Z,18.90
2017-09-08T11:47:42.874Z,19.10
2017-09-08T11:50:11.135Z,18.80
2017-09-08T11:52:38.616Z,18.80
2017-09-08T11:55:06.885Z,19.20
2017-09-08T11:57:34.363Z,19.20
2017-09-08T12:00:02.619Z,19.20
2017-09-08T12:02:30.092Z,19.20
2017-09-08T12:04:58.352Z,19.40
2017-09-08T12:07:26.602Z,19.30
2017-09-08T12:09:54.087Z,19.30
2017-09-08T12:12:22.325Z,19.00
2017-09-08T12:14:49.813Z,19.00
2017-09-08T12:17:17.302Z,19.10
2017-09-08T12:20:01.443Z,19.10
2017-09-08T12:22:29.694Z,18.90
2017-09-08T12:24:57.197Z,18.90
2017-09-08T12:27:24.668Z,18.70
2017-09-08T12:29:52.139Z,18.50
2017-09-08T12:32:19.644Z,18.50
2017-09-08T12:34:47.891Z,18.50
2017-09-08T12:37:15.386Z,18.40
2017-09-08T12:39:43.648Z,18.30
2017-09-08T12:42:11.916Z,18.50
2017-09-08T12:44:40.162Z,18.50
2017-09-08T12:47:07.677Z,18.50
2017-09-08T12:49:35.937Z,18.40
2017-09-08T12:52:04.241Z,18.30
2017-09-08T12:54:31.711Z,18.30
2017-09-08T12:56:59.208Z,18.30
2017-09-08T12:59:26.689Z,18.30
2017-09-08T13:01:54.945Z,18.40
2017-09-08T13:04:22.424Z,18.40
2017-09-08T13:06:50.687Z,18.20
2017-09-08T13:09:18.931Z,18.20
2017-09-08T13:11:46.453Z,18.20
2017-09-08T13:14:13.926Z,18.20
2017-09-08T13:16:41.421Z,18.00
2017-09-08T13:19:08.918Z,18.00
2017-09-08T13:21:37.169Z,18.00
2017-09-08T13:24:05.425Z,18.00
2017-09-08T13:26:33.022Z,18.00
2017-09-08T13:29:01.273Z,17.80
2017-09-08T13:31:28.766Z,17.80
2017-09-08T13:33:57.030Z,18.00
2017-09-08T13:36:25.272Z,18.00
2017-09-08T13:38:52.769Z,18.10
2017-09-08T13:41:21.028Z,18.40
2017-09-08T13:43:49.290Z,18.50
2017-09-08T13:46:16.763Z,18.50
2017-09-08T13:48:44.241Z,18.70
2017-09-08T13:51:12.501Z,18.40
2017-09-08T13:53:39.991Z,18.40
2017-09-08T13:56:07.477Z,18.60
2017-09-08T13:58:34.947Z,18.70
2017-09-08T14:01:02.442Z,18.60
2017-09-08T14:03:30.692Z,18.40
2017-09-08T14:05:58.190Z,18.40
2017-09-08T14:08:25.687Z,18.20
2017-09-08T14:10:53.172Z,18.30
2017-09-08T14:13:20.654Z,18.30
2017-09-08T14:15:48.900Z,18.50
2017-09-08T14:18:16.401Z,18.50
2017-09-08T14:20:43.922Z,18.60
2017-09-08T14:23:11.418Z,18.50
2017-09-08T14:25:38.919Z,18.40
2017-09-08T14:28:06.404Z,18.40
2017-09-08T14:30:33.895Z,18.40
2017-09-08T14:33:01.402Z,18.30
2017-09-08T14:35:28.883Z,18.30
2017-09-08T14:37:57.134Z,18.20
2017-09-08T14:40:24.629Z,18.20
2017-09-08T14:42:52.875Z,18.30
2017-09-08T14:45:20.370Z,18.30
2017-09-08T14:47:47.889Z,18.40
2017-09-08T14:50:15.375Z,18.30
2017-09-08T14:52:43.631Z,18.20
2017-09-08T14:55:11.119Z,18.20
2017-09-08T14:57:39.387Z,18.30
2017-09-08T15:00:06.866Z,18.30
2017-09-08T15:02:34.352Z,18.50
2017-09-08T15:05:01.836Z,18.30
2017-09-08T15:07:29.328Z,18.50
2017-09-08T15:09:57.575Z,18.40
2017-09-08T15:12:25.819Z,18.40
2017-09-08T15:14:53.305Z,18.40
2017-09-08T15:17:21.549Z,18.30
2017-09-08T15:19:49.031Z,18.30
2017-09-08T15:22:16.549Z,18.30
2017-09-08T15:24:44.019Z,18.30
2017-09-08T15:27:11.498Z,18.20
2017-09-08T15:29:38.997Z,18.20
2017-09-08T15:32:07.256Z,18.00
2017-09-08T15:34:35.514Z,17.90
2017-09-08T15:37:03.003Z,17.90
2017-09-08T15:39:30.494Z,17.90
2017-09-08T15:41:57.977Z,17.80
2017-09-08T15:44:25.446Z,17.90
2017-09-08T15:46:52.931Z,18.10
2017-09-08T15:49:21.208Z,17.70
2017-09-08T15:51:48.795Z,17.80
2017-09-08T15:54:17.422Z,17.70
2017-09-08T15:56:44.899Z,17.70
2017-09-08T15:59:12.393Z,17.60
2017-09-08T16:01:39.884Z,17.50
2017-09-08T16:04:07.383Z,17.60
2017-09-08T16:06:34.889Z,17.40
2017-09-08T16:09:02.417Z,17.50
2017-09-08T16:11:29.903Z,17.40
2017-09-08T16:13:57.392Z,17.30
2017-09-08T16:16:24.893Z,17.30
2017-09-08T16:18:52.366Z,17.30
2017-09-08T16:21:19.868Z,17.40
2017-09-08T16:23:48.942Z,17.30
2017-09-08T16:26:16.428Z,17.30
2017-09-08T16:28:43.934Z,17.40
2017-09-08T16:31:11.413Z,17.30
2017-09-08T16:33:38.899Z,17.30
2017-09-08T16:36:06.407Z,17.20
2017-09-08T16:38:33.892Z,17.20
2017-09-08T16:41:01.382Z,17.20
2017-09-08T16:43:28.883Z,17.20
2017-09-08T16:45:56.361Z,17.10
2017-09-08T16:48:23.834Z,17.10
2017-09-08T16:50:51.330Z,17.10
2017-09-08T16:53:18.810Z,17.10
2017-09-08T16:55:46.293Z,17.10
2017-09-08T16:58:13.775Z,17.10
2017-09-08T17:00:41.278Z,17.10
2017-09-08T17:03:08.750Z,17.00
2017-09-08T17:05:36.278Z,17.00
2017-09-08T17:08:03.767Z,16.90
2017-09-08T17:10:32.168Z,16.80
2017-09-08T17:12:59.654Z,16.70
2017-09-08T17:15:27.144Z,16.70
2017-09-08T17:17:54.672Z,16.70
2017-09-08T17:20:22.919Z,16.60
2017-09-08T17:22:50.422Z,16.60
2017-09-08T17:25:17.919Z,16.60
2017-09-08T17:27:45.406Z,16.50
2017-09-08T17:30:13.647Z,16.30
2017-09-08T17:32:41.144Z,16.30
2017-09-08T17:35:08.681Z,16.30
2017-09-08T17:37:36.181Z,16.30
2017-09-08T17:40:03.666Z,16.20
2017-09-08T17:42:31.162Z,16.10
2017-09-08T17:44:58.632Z,16.10
2017-09-08T17:47:26.139Z,16.10
2017-09-08T17:49:53.622Z,16.00
2017-09-08T17:52:21.126Z,16.00
2017-09-08T17:54:49.807Z,15.90
2017-09-08T17:57:18.064Z,15.90
2017-09-08T17:59:45.547Z,15.90
2017-09-08T18:02:13.800Z,15.80
2017-09-08T18:04:41.287Z,15.80
2017-09-08T18:07:09.549Z,15.70
2017-09-08T18:09:37.030Z,15.70
2017-09-08T18:12:04.508Z,15.70
2017-09-08T18:14:31.996Z,15.70
2017-09-08T18:16:59.970Z,15.70
2017-09-08T18:19:27.461Z,15.60
2017-09-08T18:21:55.697Z,15.60
2017-09-08T18:24:23.188Z,15.60
2017-09-08T18:26:51.432Z,15.50
2017-09-08T18:29:18.922Z,15.50
2017-09-08T18:31:46.385Z,15.50
2017-09-08T18:34:14.636Z,15.40
2017-09-08T18:36:42.875Z,15.40
2017-09-08T18:39:10.386Z,15.40
2017-09-08T18:41:37.873Z,15.40
2017-09-08T18:44:05.357Z,15.40
2017-09-08T18:46:32.857Z,15.40
2017-09-08T18:49:00.366Z,15.30
2017-09-08T18:51:27.852Z,15.30
2017-09-08T18:53:55.344Z,15.30
2017-09-08T18:56:22.842Z,15.30
2017-09-08T18:58:50.312Z,15.30
2017-09-08T19:01:17.809Z,15.20
2017-09-08T19:03:45.287Z,15.20
2017-09-08T19:06:13.541Z,15.10
2017-09-08T19:08:41.023Z,15.10
2017-09-08T19:11:09.296Z,15.10
2017-09-08T19:13:37.560Z,15.10
2017-09-08T19:16:05.842Z,15.10
2017-09-08T19:18:34.117Z,15.10
2017-09-08T19:21:02.366Z,15.10
2017-09-08T19:23:30.857Z,15.10
2017-09-08T19:25:58.326Z,15.10
2017-09-08T19:28:25.832Z,15.10
2017-09-08T19:30:53.312Z,15.10
2017-09-08T19:33:24.416Z,15.00
2017-09-08T19:35:51.887Z,14.90
2017-09-08T19:38:19.394Z,14.90
2017-09-08T19:40:55.598Z,14.80
2017-09-08T19:43:23.088Z,14.80
2017-09-08T19:45:50.600Z,14.80
2017-09-08T19:48:18.091Z,14.80
2017-09-08T19:50:45.657Z,14.70
2017-09-08T19:53:13.132Z,14.70
2017-09-08T19:55:40.719Z,14.70
2017-09-08T19:58:09.004Z,14.70
2017-09-08T20:00:36.487Z,14.70
2017-09-08T20:03:03.968Z,14.70
2017-09-08T20:05:31.461Z,14.70
2017-09-08T20:07:59.711Z,14.70
2017-09-08T20:10:27.207Z,14.60
2017-09-08T20:12:55.462Z,14.60
2017-09-08T20:15:22.975Z,14.60
2017-09-08T20:17:50.454Z,14.70
2017-09-08T20:20:17.957Z,14.70
2017-09-08T20:22:46.211Z,14.70
2017-09-08T20:25:13.716Z,14.70
2017-09-08T20:27:41.223Z,14.60
2017-09-08T20:30:08.717Z,14.60
2017-09-08T20:32:37.994Z,14.60
2017-09-08T20:35:05.492Z,14.60
2017-09-08T20:37:32.974Z,14.60
2017-09-08T20:40:00.482Z,14.60
2017-09-08T20:42:28.721Z,14.40
2017-09-08T20:44:56.208Z,14.40
2017-09-08T20:47:23.703Z,14.40
2017-09-08T20:49:51.178Z,14.40
2017-09-08T20:52:18.654Z,14.30
2017-09-08T20:54:46.141Z,14.20
2017-09-08T20:57:14.396Z,14.40
2017-09-08T20:59:41.871Z,14.40
2017-09-08T21:02:24.369Z,14.30
2017-09-08T21:04:51.882Z,14.30
2017-09-08T21:07:19.371Z,14.20
2017-09-08T21:09:46.855Z,14.20
2017-09-08T21:12:14.341Z,14.20
2017-09-08T21:14:41.827Z,14.20
2017-09-08T21:17:09.325Z,14.20
2017-09-08T21:19:36.808Z,14.20
2017-09-08T21:22:04.307Z,14.30
2017-09-08T21:24:31.793Z,14.20
2017-09-08T21:26:59.279Z,14.20
2017-09-08T21:29:27.549Z,14.00
2017-09-08T21:31:55.816Z,14.10
2017-09-08T21:34:24.072Z,14.00
2017-09-08T21:36:51.585Z,14.00
2017-09-08T21:39:19.059Z,14.00
2017-09-08T21:41:46.544Z,13.90
2017-09-08T21:44:14.815Z,14.00
2017-09-08T21:46:42.307Z,14.00
2017-09-08T21:49:09.779Z,14.00
2017-09-08T21:51:37.262Z,14.00
2017-09-08T21:54:04.729Z,14.00
2017-09-08T21:56:32.236Z,13.90
2017-09-08T21:59:00.482Z,13.90
2017-09-08T22:01:27.972Z,13.90
2017-09-08T22:03:55.474Z,13.90
2017-09-08T22:06:22.978Z,13.90
2017-09-08T22:08:50.479Z,13.90
2017-09-08T22:11:18.001Z,13.90
2017-09-08T22:13:46.264Z,13.90
2017-09-08T22:16:13.734Z,13.90
2017-09-08T22:18:41.227Z,13.90
2017-09-08T22:21:14.669Z,13.90
2017-09-08T22:23:42.174Z,14.00
2017-09-08T22:26:09.652Z,13.90
2017-09-08T22:28:37.164Z,14.00
2017-09-08T22:31:05.414Z,14.00
2017-09-08T22:33:32.888Z,14.00
2017-09-08T22:36:01.138Z,14.00
2017-09-08T22:38:28.626Z,14.00
2017-09-08T22:40:56.863Z,14.00
2017-09-08T22:43:24.345Z,14.00
2017-09-08T22:45:51.826Z,14.00
2017-09-08T22:48:20.097Z,13.90
2017-09-08T22:50:48.355Z,13.90
2017-09-08T22:53:25.826Z,13.90
2017-09-08T22:55:53.305Z,13.90
2017-09-08T22:58:21.567Z,13.90
2017-09-08T23:00:49.053Z,13.90
2017-09-08T23:03:17.331Z,13.80
2017-09-08T23:05:44.813Z,13.80
2017-09-08T23:08:12.326Z,13.70
2017-09-08T23:10:39.808Z,13.60
2017-09-08T23:13:08.044Z,13.50
2017-09-08T23:15:35.555Z,13.50
2017-09-08T23:18:03.809Z,13.60
2017-09-08T23:20:31.311Z,13.50
2017-09-08T23:22:58.798Z,13.60
2017-09-08T23:25:26.284Z,13.60
2017-09-08T23:27:53.781Z,13.60
2017-09-08T23:30:21.285Z,13.50
2017-09-08T23:32:48.782Z,13.50
2017-09-08T23:35:16.465Z,13.60
2017-09-08T23:37:43.948Z,13.60
2017-09-08T23:40:11.431Z,13.60
2017-09-08T23:42:38.918Z,13.60
2017-09-08T23:45:07.178Z,13.50
2017-09-08T23:47:35.431Z,13.40
2017-09-08T23:50:02.934Z,13.40
2017-09-08T23:52:30.413Z,13.50
2017-09-08T23:54:57.878Z,13.50
2017-09-08T23:57:25.369Z,13.50
2017-09-08T23:59:52.854Z,13.50
